Aeroporto :
LOGIN :

Iscrizione | Disclaimer

   EN    FR    IT 

 










Sommario :    VFR   VFR Marginale   IFR   IFR Intensivo   IFR Molto Intensivo
Visibilità : 
Base nubi : 
>= 8 km
>= 3000ft
5 / 8 km
1000 / 3000 ft
1500m / 5 km
500 / 1000 ft
800 / 1500m
200 / 500 ft
< 800m
< 200 ft
Simboli :   Temporali  Nebbia  Neve Forte  Precipitazioni Forti  Vento > 20 kt
SIGMETs :   Varie  Temporali  Ghiacco  Turbolenza  Onda orograficha  Ceneri Vulcaniche







- Altitudine del aeroporto : 124 ft
- Codice IATA : NHT
- Carte del aeroporto


EGWU - RAF Northolt

ULTIMO METAR :
  • 260850Z 25014KT 9999 BKN018 BKN060 17/13 Q1014 NOSIG

METARs OBSOLETI :
  • 260750Z 25010KT 9999 SCT016 BKN060 17/13 Q1014 WHT TEMPO FEW016 BKN040 BLU
  • 260650Z 25008KT 9999 FEW012 BKN060 15/12 Q1015 TEMPO SCT012
  • 260620Z 26008KT 9999 BKN011 BKN060 14/12 Q1014 GRN BECMG FEW010 BLU
  • 260550Z 26008KT 9999 FEW010 BKN060 14/12 Q1015 TEMPO SCT010

TAF TAF EGWU
Valido dal 26 a 09 ore il 27 a 03 ore UTC


260721Z 2609/2703 26012KT 9999 FEW014 BKN040
BECMG 2609/2611 BKN018
TEMPO 2610/2617 7000 -RADZ
PROB30
TEMPO 2611/2615 4000 RA BKN012
BECMG 2615/2618 SCT026
Nessun NOTAM noto per questo aeroporto.



MetMap, La meteo Aeronautica in un colpo d'occhio ! - Copyright ORBIFLY Dicembre 2007 - Disclaimer

ORBIFLY MET'MAP TEAM :

Programmazione e sviluppo : Alexandra Zaïnal
Concezione e sviluppo : Baudouin d'Aumeries
Co-Programmazione e sviluppo : Marc-Olivier Méhu
Supporto tecnico e logistico : Manuel Goepfert
Aiuto per la traduzione : Arnaldo La Scala

Contatto : metmap@orbifly.com




FONTI E CREDITI :

   NOAA